Terminal Aerodrome Forecast
Issued by NWS Blacksburg, VA

Current Version | Previous Version | Text Only | Print | Product List | Glossary Off
Versions: 1 2 3 4 5 6 7 8 9 10 11 12 13 14 15 16 17 18 19 20

000
FTUS41 KRNK 262349
TAFBLF
TAF
KBLF 262349Z 2700/2724 26010G18KT P6SM VCSH BKN050 OVC100
     FM270400 25007KT 5SM -SHRA OVC025
     FM270700 VRB04KT 3SM -SHRA BR OVC015
     FM271500 26010G16KT P6SM -SHRA VCTS OVC025CB PROB30 2716/2721
      1SM +TSRA BR BKN005 OVC015CB=

USA.gov is the U.S. government's official web portal to all federal, state and local government web resources and services.